Time;durP1;ratioP1;P1;durP2;ratioP2;P2;SDS_P1;SDS_P2;PMS_P1;PMS_P2;Temp;Humidity;BMP_temperature;BMP_pressure;BME280_temperature;BME280_humidity;BME280_pressure;Samples;Min_cycle;Max_cycle;Signal;HPM_P1;HPM_P2
2021/06/12 00:00:43;;;;;;;20.83;14.57;;;;;;;20.98;65.65;100052.22;2215414;40;20107;-88
2021/06/12 00:02:14;;;;;;;13.68;11.07;;;;;;;20.98;65.50;100052.22;2215427;40;20041;-88
2021/06/12 00:03:45;;;;;;;12.93;9.80;;;;;;;20.99;65.33;100055.78;2210299;40;20156;-85
2021/06/12 00:05:16;;;;;;;10.02;8.25;;;;;;;20.95;65.46;100043.66;2215304;40;20042;-85
2021/06/12 00:06:49;;;;;;;9.93;7.75;;;;;;;20.95;65.47;100052.66;2214149;40;20038;-85
2021/06/12 00:08:21;;;;;;;11.27;8.35;;;;;;;20.95;65.44;100044.50;2215390;40;20022;-85
2021/06/12 00:09:51;;;;;;;10.43;7.95;;;;;;;20.97;65.40;100055.16;2213965;40;20030;-85
2021/06/12 00:11:23;;;;;;;10.77;7.68;;;;;;;20.96;65.50;100050.75;2217908;40;20034;-85
2021/06/12 00:12:59;;;;;;;8.95;7.43;;;;;;;20.96;65.41;100051.63;2227220;40;20041;-85
2021/06/12 00:14:31;;;;;;;11.48;8.70;;;;;;;20.97;65.36;100041.56;2227905;40;20037;-87
2021/06/12 00:16:04;;;;;;;9.68;7.60;;;;;;;20.97;65.38;100047.81;2215098;40;20108;-89
2021/06/12 00:17:36;;;;;;;11.50;8.77;;;;;;;20.98;65.27;100049.50;2212115;40;20022;-88
2021/06/12 00:19:07;;;;;;;11.75;8.65;;;;;;;20.93;65.35;100045.75;2204377;40;20162;-86
2021/06/12 00:20:39;;;;;;;11.52;8.68;;;;;;;20.84;65.79;100045.16;2215776;40;20022;-89
2021/06/12 00:22:11;;;;;;;11.70;8.55;;;;;;;20.77;65.83;100049.78;2214896;40;20046;-87
2021/06/12 00:23:43;;;;;;;12.35;8.40;;;;;;;20.70;65.92;100050.56;2216241;40;20045;-86
2021/06/12 00:25:16;;;;;;;10.35;8.90;;;;;;;20.64;66.33;100062.28;2216299;40;20038;-87
2021/06/12 00:26:47;;;;;;;9.32;7.90;;;;;;;20.58;66.47;100061.25;2222335;40;20119;-85
2021/06/12 00:28:19;;;;;;;10.15;8.10;;;;;;;20.55;66.66;100066.28;2220969;40;20087;-86
2021/06/12 00:29:50;;;;;;;8.25;7.38;;;;;;;20.51;66.50;100060.44;2223049;40;20042;-86
2021/06/12 00:31:21;;;;;;;8.57;7.22;;;;;;;20.47;66.92;100056.44;2227314;40;20041;-87
2021/06/12 00:32:53;;;;;;;9.30;8.13;;;;;;;20.46;67.00;100052.06;2226203;40;20025;-88
2021/06/12 00:34:24;;;;;;;11.25;8.70;;;;;;;20.42;67.16;100056.25;2212707;40;20038;-87
2021/06/12 00:35:56;;;;;;;10.65;8.18;;;;;;;20.39;67.16;100052.09;2216314;40;20238;-90
2021/06/12 00:37:29;;;;;;;13.07;10.02;;;;;;;20.31;67.55;100054.16;2214897;40;20033;-87
2021/06/12 00:39:03;;;;;;;9.35;8.30;;;;;;;20.21;67.60;100049.16;2216819;40;20030;-89
2021/06/12 00:40:35;;;;;;;11.05;9.07;;;;;;;20.16;68.04;100059.78;2215232;40;20050;-88
2021/06/12 00:42:06;;;;;;;10.68;8.70;;;;;;;20.12;68.11;100063.97;2216651;40;20029;-89
2021/06/12 00:43:40;;;;;;;11.55;8.15;;;;;;;20.10;68.49;100056.88;2158409;40;20034;-88
2021/06/12 00:45:17;;;;;;;12.13;9.07;;;;;;;20.15;68.25;100066.25;2212208;40;20227;-90
2021/06/12 00:46:49;;;;;;;10.45;8.60;;;;;;;20.17;68.21;100053.31;2202987;40;20059;-89
2021/06/12 00:48:21;;;;;;;8.73;7.82;;;;;;;20.20;68.13;100058.34;2183631;40;20039;-87
2021/06/12 00:49:52;;;;;;;13.13;8.63;;;;;;;20.21;67.90;100057.31;2179006;41;20036;-88
2021/06/12 00:51:24;;;;;;;13.43;9.27;;;;;;;20.20;67.96;100056.44;2193565;40;20040;-88
2021/06/12 00:52:57;;;;;;;11.90;8.27;;;;;;;20.16;68.10;100051.66;2207568;40;20089;-88
2021/06/12 00:54:28;;;;;;;15.10;10.00;;;;;;;20.15;67.90;100055.41;2209561;40;20116;-88
2021/06/12 00:55:59;;;;;;;11.88;9.40;;;;;;;20.12;68.28;100062.09;2203741;40;20027;-90
2021/06/12 00:57:31;;;;;;;11.45;9.98;;;;;;;20.06;68.18;100061.03;2182888;40;23396;-89
2021/06/12 00:59:03;;;;;;;13.35;9.60;;;;;;;20.01;68.23;100068.13;2189824;40;20032;-88
2021/06/12 01:00:34;;;;;;;9.90;8.88;;;;;;;19.97;68.20;100054.13;2185167;40;20032;-89
2021/06/12 01:02:05;;;;;;;10.05;8.90;;;;;;;19.96;68.23;100055.19;2190774;40;20531;-88
2021/06/12 01:03:39;;;;;;;10.43;9.32;;;;;;;19.94;68.50;100060.81;2201774;40;20781;-86
2021/06/12 01:05:12;;;;;;;10.93;9.23;;;;;;;19.87;68.55;100057.28;2210036;40;20019;-86
2021/06/12 01:06:45;;;;;;;10.75;9.27;;;;;;;19.86;68.45;100057.44;2208761;40;20035;-85
2021/06/12 01:08:18;;;;;;;12.07;9.98;;;;;;;19.82;68.59;100058.88;2210613;40;20038;-83
2021/06/12 01:09:49;;;;;;;10.43;9.23;;;;;;;19.79;68.78;100051.97;2208624;40;20045;-84
2021/06/12 01:11:21;;;;;;;12.07;9.70;;;;;;;19.75;69.03;100048.84;2209957;40;20524;-86
2021/06/12 01:13:06;;;;;;;10.55;8.75;;;;;;;19.71;69.44;100055.72;2208244;40;20041;-84
2021/06/12 01:14:42;;;;;;;12.13;9.57;;;;;;;19.71;69.41;100050.31;2210003;40;20053;-85
2021/06/12 01:16:19;;;;;;;11.02;8.88;;;;;;;19.68;69.22;100055.31;2208005;40;20616;-87
2021/06/12 01:17:56;;;;;;;10.13;8.77;;;;;;;19.68;69.43;100052.59;2210113;40;20034;-86
2021/06/12 01:20:00;;;;;;;12.48;9.02;;;;;;;19.70;69.38;100048.63;2211322;40;20045;-84
2021/06/12 01:21:35;;;;;;;12.93;9.48;;;;;;;19.74;68.95;100049.06;2196878;40;20027;-88
2021/06/12 01:23:40;;;;;;;9.48;8.48;;;;;;;19.82;68.82;100050.75;2205822;40;20038;-87
2021/06/12 01:25:22;;;;;;;12.32;10.30;;;;;;;19.83;68.86;100053.25;2205945;40;20038;-88
2021/06/12 01:27:17;;;;;;;11.00;9.13;;;;;;;19.80;69.18;100050.94;2210291;40;20033;-88
2021/06/12 01:28:58;;;;;;;13.18;9.18;;;;;;;19.74;69.31;100049.88;2208550;40;20038;-89
2021/06/12 01:30:34;;;;;;;11.52;9.15;;;;;;;19.68;69.65;100050.72;2209135;40;20066;-85
2021/06/12 01:32:08;;;;;;;14.20;10.27;;;;;;;19.63;69.99;100043.19;2209860;40;20022;-84
2021/06/12 01:33:44;;;;;;;13.85;9.93;;;;;;;19.57;70.01;100054.00;2211194;40;20034;-86
2021/06/12 01:35:24;;;;;;;9.57;8.07;;;;;;;19.48;70.53;100051.47;2215915;40;20038;-88
2021/06/12 01:36:56;;;;;;;12.95;10.25;;;;;;;19.44;70.92;100042.09;2218410;40;20040;-86
2021/06/12 01:38:31;;;;;;;9.80;8.50;;;;;;;19.41;70.79;100041.69;2222187;40;20046;-87
2021/06/12 01:40:04;;;;;;;12.40;9.35;;;;;;;19.42;71.13;100036.03;2220779;40;20036;-87
2021/06/12 01:41:37;;;;;;;9.95;8.48;;;;;;;19.40;71.10;100038.13;2222141;40;20045;-86
2021/06/12 01:43:11;;;;;;;12.05;10.38;;;;;;;19.40;70.78;100038.13;2220701;40;20068;-85
2021/06/12 01:44:42;;;;;;;12.88;9.35;;;;;;;19.36;71.06;100039.56;2209883;40;20045;-84
2021/06/12 01:46:16;;;;;;;10.50;9.30;;;;;;;19.35;70.81;100021.63;2210650;40;21303;-86
2021/06/12 01:47:47;;;;;;;11.13;8.93;;;;;;;19.41;70.83;100037.06;2222091;40;20095;-88
2021/06/12 01:49:20;;;;;;;15.43;13.70;;;;;;;19.53;70.53;100031.06;2220724;40;20109;-87
2021/06/12 01:50:52;;;;;;;14.68;13.27;;;;;;;19.59;70.06;100032.97;2212318;40;20073;-86
2021/06/12 01:52:25;;;;;;;12.15;10.88;;;;;;;19.59;70.03;100030.25;2208377;40;20062;-89
2021/06/12 01:53:59;;;;;;;11.68;9.73;;;;;;;19.61;70.05;100029.00;2210455;40;20081;-89
2021/06/12 01:55:33;;;;;;;13.90;10.05;;;;;;;19.61;69.62;100028.16;2208569;40;20623;-89
2021/06/12 01:57:05;;;;;;;12.75;9.95;;;;;;;19.63;69.70;100032.34;2210281;40;20077;-85
2021/06/12 01:58:39;;;;;;;11.40;9.50;;;;;;;19.65;69.44;100037.56;2208350;40;20038;-85
2021/06/12 02:00:11;;;;;;;9.60;8.05;;;;;;;19.66;69.71;100044.66;2208127;40;20027;-85
2021/06/12 02:01:48;;;;;;;10.63;9.35;;;;;;;19.71;69.54;100039.47;2209813;40;20034;-84
2021/06/12 02:03:20;;;;;;;13.13;8.93;;;;;;;19.73;69.49;100037.38;2207767;40;20045;-86
2021/06/12 02:04:51;;;;;;;10.23;8.35;;;;;;;19.75;69.29;100040.72;2209708;40;20042;-84
2021/06/12 02:06:24;;;;;;;12.15;10.32;;;;;;;19.75;69.24;100043.41;2208039;40;20173;-87
2021/06/12 02:07:57;;;;;;;11.40;9.98;;;;;;;19.69;69.65;100044.25;2213056;40;20041;-84
2021/06/12 02:09:29;;;;;;;13.40;11.00;;;;;;;19.63;69.71;100036.94;2214509;40;20636;-84
2021/06/12 02:11:01;;;;;;;14.93;10.00;;;;;;;19.58;69.74;100044.84;2215763;40;20034;-85
2021/06/12 02:12:35;;;;;;;13.00;11.70;;;;;;;19.48;70.21;100043.34;2214812;40;21101;-88
2021/06/12 04:17:01;;;;;;;13.45;11.18;;;;;;;18.05;73.94;100087.81;2220861;40;19951;-85
2021/06/12 04:18:32;;;;;;;15.98;11.75;;;;;;;17.98;74.11;100083.34;2198921;40;20034;-86
2021/06/12 07:34:44;;;;;;;11.00;7.90;;;;;;;22.97;59.11;100086.75;2204946;40;20042;-85
2021/06/12 07:36:15;;;;;;;11.73;7.95;;;;;;;22.95;59.40;100089.72;2191680;40;20083;-86
2021/06/12 07:37:47;;;;;;;10.45;7.70;;;;;;;23.05;59.31;100089.19;2173229;40;20030;-87
2021/06/12 07:39:18;;;;;;;8.95;7.18;;;;;;;23.16;58.95;100087.63;2206416;40;20045;-86
2021/06/12 07:40:50;;;;;;;7.50;5.55;;;;;;;23.35;58.74;100085.72;2208221;40;20065;-89
2021/06/12 07:42:22;;;;;;;11.80;6.70;;;;;;;23.63;57.96;100084.31;2207392;40;20038;-84
2021/06/12 07:43:54;;;;;;;6.63;5.55;;;;;;;23.72;57.22;100088.41;2209387;40;20031;-83
2021/06/12 07:45:26;;;;;;;10.82;5.35;;;;;;;23.83;56.96;100093.06;2207996;40;20786;-84
2021/06/12 07:46:57;;;;;;;7.20;5.63;;;;;;;23.89;56.10;100083.13;2214802;40;20038;-85
2021/06/12 07:48:28;;;;;;;7.80;6.18;;;;;;;23.88;55.74;100097.03;2204368;40;20128;-84
2021/06/12 07:50:01;;;;;;;6.32;5.45;;;;;;;23.97;55.77;100091.03;2203493;40;20039;-87
2021/06/12 07:51:33;;;;;;;8.32;6.32;;;;;;;24.03;55.41;100100.19;2188977;40;20546;-85
2021/06/12 07:53:05;;;;;;;6.88;5.25;;;;;;;24.10;55.56;100091.91;2190386;40;20064;-86
2021/06/12 07:54:37;;;;;;;7.45;5.80;;;;;;;24.28;55.31;100100.00;2190701;40;20159;-86
2021/06/12 07:58:06;;;;;;;7.65;5.00;;;;;;;24.57;55.28;100082.94;2178460;40;20053;-84
2021/06/12 07:59:51;;;;;;;9.95;5.25;;;;;;;24.62;55.19;100096.72;2185182;40;20043;-86
2021/06/12 08:03:13;;;;;;;7.93;5.70;;;;;;;24.76;54.70;100084.50;2191354;40;20071;-85
2021/06/12 08:04:50;;;;;;;6.88;5.22;;;;;;;24.85;54.25;100095.09;2123438;41;20057;-86
2021/06/12 08:06:27;;;;;;;6.93;5.07;;;;;;;24.96;53.74;100094.25;2171866;40;20025;-85
2021/06/12 08:07:59;;;;;;;8.75;6.50;;;;;;;24.96;53.42;100091.50;2180702;40;20036;-83
2021/06/12 08:09:30;;;;;;;9.27;6.60;;;;;;;24.83;53.36;100094.50;2188597;40;20117;-84
2021/06/12 08:11:03;;;;;;;8.50;5.40;;;;;;;24.74;53.58;100094.88;2202648;40;20035;-87
2021/06/12 08:12:34;;;;;;;7.15;5.25;;;;;;;24.96;53.50;100086.03;2205825;40;20478;-84
2021/06/12 08:14:05;;;;;;;8.52;5.10;;;;;;;25.27;52.63;100088.63;2208879;40;20162;-89
2021/06/12 08:15:38;;;;;;;9.60;5.88;;;;;;;25.40;52.50;100090.28;2194635;40;24511;-88
2021/06/12 08:17:09;;;;;;;9.20;6.15;;;;;;;25.47;52.36;100082.78;2202387;40;20023;-85
2021/06/12 08:18:41;;;;;;;7.32;5.70;;;;;;;25.38;52.46;100083.13;2189532;40;20031;-84
2021/06/12 08:20:13;;;;;;;7.30;5.18;;;;;;;25.54;52.19;100080.72;2190057;40;20032;-85
2021/06/12 08:21:46;;;;;;;8.45;5.57;;;;;;;25.63;51.98;100090.19;2181758;40;20049;-87
2021/06/12 08:23:17;;;;;;;9.35;5.20;;;;;;;25.73;52.19;100088.72;2188998;40;20513;-86
2021/06/12 08:24:49;;;;;;;6.45;5.07;;;;;;;25.94;51.47;100095.41;2196643;40;20028;-85
2021/06/12 08:26:20;;;;;;;7.88;6.28;;;;;;;25.94;50.93;100084.47;2190424;40;20709;-86
2021/06/12 08:27:52;;;;;;;10.25;5.93;;;;;;;25.75;51.06;100086.59;2198056;40;20070;-87
2021/06/12 08:29:25;;;;;;;8.63;6.68;;;;;;;25.68;51.66;100081.25;2208630;40;20050;-85
2021/06/12 08:30:58;;;;;;;10.35;6.35;;;;;;;25.80;51.38;100090.25;2210040;40;20019;-86
2021/06/12 08:32:29;;;;;;;6.20;5.18;;;;;;;26.10;50.62;100080.97;2207723;40;20034;-84
2021/06/12 08:34:01;;;;;;;7.07;5.00;;;;;;;26.43;50.23;100079.31;2209033;40;20031;-85
2021/06/12 08:35:33;;;;;;;10.80;6.10;;;;;;;26.44;49.64;100093.88;2206002;40;20058;-82
2021/06/12 08:37:06;;;;;;;11.15;7.28;;;;;;;26.33;49.53;100089.28;2204195;40;20124;-83
2021/06/12 08:38:37;;;;;;;9.02;6.35;;;;;;;26.21;48.88;100090.19;2205945;40;20097;-84
2021/06/12 08:40:10;;;;;;;10.82;7.43;;;;;;;26.22;48.58;100091.00;2158311;40;20167;-83
2021/06/12 08:41:41;;;;;;;8.73;6.70;;;;;;;26.08;48.44;100079.50;2196180;40;20419;-82
2021/06/12 08:43:27;;;;;;;8.25;6.65;;;;;;;25.95;48.63;100092.44;2167668;40;20615;-82
2021/06/12 08:45:03;;;;;;;8.88;5.50;;;;;;;25.96;48.95;100091.38;2199200;40;20327;-83
2021/06/12 08:46:34;;;;;;;7.85;5.97;;;;;;;26.11;48.43;100087.28;2203962;40;20042;-83
2021/06/12 08:48:09;;;;;;;9.95;5.95;;;;;;;26.13;47.46;100093.34;2205841;40;20046;-82
2021/06/12 08:49:41;;;;;;;7.75;5.05;;;;;;;26.12;47.86;100088.94;2209897;40;20042;-82
2021/06/12 08:51:12;;;;;;;7.93;4.95;;;;;;;26.26;47.33;100090.25;2210197;40;20100;-82
2021/06/12 08:52:45;;;;;;;7.20;4.72;;;;;;;26.41;47.37;100088.88;2212211;40;20049;-84
2021/06/12 08:54:18;;;;;;;9.18;6.40;;;;;;;26.55;47.01;100083.88;2210737;40;20042;-82
2021/06/12 08:55:49;;;;;;;7.65;4.40;;;;;;;26.57;46.93;100079.81;2205647;40;20369;-83
2021/06/12 08:57:21;;;;;;;7.55;3.60;;;;;;;26.81;46.17;100084.28;2205052;40;20046;-82
2021/06/12 08:58:52;;;;;;;6.32;4.30;;;;;;;26.92;46.05;100089.66;2205622;40;20434;-83
2021/06/12 09:00:24;;;;;;;8.57;4.45;;;;;;;26.85;45.79;100088.19;2204977;40;20085;-83
2021/06/12 09:01:55;;;;;;;6.35;4.00;;;;;;;26.96;45.13;100086.41;2204659;40;20105;-81
2021/06/12 09:03:28;;;;;;;7.28;4.05;;;;;;;26.96;44.91;100081.78;2203341;40;20031;-83
2021/06/12 09:05:00;;;;;;;9.50;5.15;;;;;;;27.16;44.60;100077.66;2205754;40;20052;-82
2021/06/12 09:06:31;;;;;;;8.52;4.63;;;;;;;27.05;44.33;100079.41;2204295;40;20058;-83
2021/06/12 09:08:07;;;;;;;5.70;3.90;;;;;;;27.08;44.50;100087.16;2205503;40;20156;-82
2021/06/12 09:09:41;;;;;;;6.35;4.43;;;;;;;27.06;44.65;100081.91;2203430;40;20050;-82
2021/06/12 09:11:15;;;;;;;5.72;4.10;;;;;;;26.97;44.82;100077.13;2204801;40;20042;-82
2021/06/12 09:12:46;;;;;;;7.35;5.05;;;;;;;26.70;45.45;100067.66;2203351;40;20089;-81
2021/06/12 09:14:18;;;;;;;6.75;4.25;;;;;;;26.69;45.39;100081.63;2205247;40;20159;-83
2021/06/12 09:15:52;;;;;;;5.47;4.20;;;;;;;26.61;45.95;100080.13;2203890;40;20053;-82
2021/06/12 09:17:37;;;;;;;11.27;4.25;;;;;;;26.65;45.65;100085.94;2205270;40;20097;-82
2021/06/12 09:19:10;;;;;;;6.28;3.95;;;;;;;26.55;46.05;100081.97;2203778;40;20050;-82
2021/06/12 09:20:43;;;;;;;5.72;4.10;;;;;;;26.76;45.71;100076.78;2204948;40;20057;-82
2021/06/12 09:22:15;;;;;;;6.70;4.22;;;;;;;26.90;45.11;100075.41;2204342;40;20057;-83
2021/06/12 09:23:47;;;;;;;10.65;4.40;;;;;;;27.07;45.17;100066.28;2211443;40;20124;-83
2021/06/12 09:25:37;;;;;;;6.97;3.67;;;;;;;27.45;44.24;100059.09;2209919;40;20050;-83
2021/06/12 09:27:13;;;;;;;7.13;4.40;;;;;;;27.57;43.18;100061.69;2206617;40;20395;-82
2021/06/12 09:28:52;;;;;;;5.72;3.20;;;;;;;27.56;43.36;100060.03;2205571;40;20052;-84
2021/06/12 09:30:29;;;;;;;7.50;3.43;;;;;;;27.54;42.93;100063.03;2205171;40;20034;-84
2021/06/12 09:32:00;;;;;;;8.13;3.90;;;;;;;27.30;43.71;100064.38;2206233;40;20103;-83
2021/06/12 09:33:35;;;;;;;5.47;3.30;;;;;;;27.24;43.88;100052.50;2204570;40;20050;-84
2021/06/12 09:35:08;;;;;;;5.40;3.30;;;;;;;27.32;43.61;100048.47;2205567;40;20463;-82
2021/06/12 09:36:42;;;;;;;6.40;3.70;;;;;;;27.30;43.66;100047.91;2204434;40;20058;-84
2021/06/12 09:38:24;;;;;;;7.50;3.42;;;;;;;27.21;43.92;100048.34;2205705;40;20037;-82
2021/06/12 09:40:02;;;;;;;7.10;3.55;;;;;;;27.46;43.83;100049.78;2203784;40;20050;-82
2021/06/12 09:41:33;;;;;;;6.38;3.97;;;;;;;27.69;43.40;100053.28;2205123;40;20046;-82
2021/06/12 09:43:04;;;;;;;6.03;3.88;;;;;;;27.74;43.28;100045.13;2204844;40;20422;-84
2021/06/12 09:44:37;;;;;;;5.82;3.67;;;;;;;27.93;42.94;100055.75;2209025;40;20046;-84
2021/06/12 09:46:30;;;;;;;5.57;3.33;;;;;;;27.94;42.72;100055.47;2203009;40;20035;-87
2021/06/12 09:48:09;;;;;;;6.20;3.55;;;;;;;27.80;42.85;100052.31;2210082;40;20045;-86
2021/06/12 09:49:40;;;;;;;6.60;3.40;;;;;;;28.12;42.73;100050.72;2148146;40;20036;-87
2021/06/12 09:51:15;;;;;;;6.35;3.50;;;;;;;28.32;42.39;100052.81;2170777;41;20373;-87
2021/06/12 09:52:49;;;;;;;5.90;3.47;;;;;;;28.33;42.55;100069.03;2124867;41;20055;-89
2021/06/12 09:54:33;;;;;;;6.28;4.05;;;;;;;28.44;42.48;100045.19;2162513;41;20034;-86
2021/06/12 09:56:11;;;;;;;9.02;3.85;;;;;;;28.43;42.20;100051.81;2147828;41;20041;-81
2021/06/12 09:57:47;;;;;;;7.75;3.95;;;;;;;28.07;42.79;100057.00;2143847;40;20176;-84
2021/06/12 09:59:21;;;;;;;6.88;3.80;;;;;;;27.95;42.83;100059.06;2191649;40;20058;-83
2021/06/12 10:00:52;;;;;;;8.02;3.45;;;;;;;27.96;42.58;100057.97;2185232;40;20083;-84
2021/06/12 10:02:37;;;;;;;11.02;4.57;;;;;;;27.81;43.22;100059.47;2189241;40;20040;-90
2021/06/12 10:04:10;;;;;;;5.68;3.17;;;;;;;27.98;43.13;100062.13;2203784;40;20116;-86
2021/06/12 10:05:41;;;;;;;6.68;3.90;;;;;;;28.30;42.81;100057.75;2197173;40;20015;-84
2021/06/12 10:08:46;;;;;;;7.60;4.05;;;;;;;28.59;42.18;100057.41;2183053;40;20044;-85
2021/06/12 10:10:17;;;;;;;6.38;3.88;;;;;;;28.65;42.06;100061.81;2202253;40;20048;-83
2021/06/12 10:11:50;;;;;;;12.57;4.30;;;;;;;28.90;41.82;100060.38;2209393;40;20023;-83
2021/06/12 10:13:22;;;;;;;5.85;4.00;;;;;;;29.15;41.66;100053.31;2209521;40;20046;-84
2021/06/12 10:14:56;;;;;;;5.45;3.42;;;;;;;29.40;41.33;100050.69;2215261;40;20030;-86
2021/06/12 10:16:33;;;;;;;6.95;4.03;;;;;;;29.59;40.75;100049.38;2214435;40;20038;-84
2021/06/12 10:18:06;;;;;;;8.45;4.07;;;;;;;29.41;41.05;100055.09;2216009;40;20029;-83
2021/06/12 10:19:44;;;;;;;13.23;4.32;;;;;;;29.45;40.83;100057.31;2213682;40;20041;-84
2021/06/12 10:21:16;;;;;;;6.10;3.88;;;;;;;29.48;40.59;100056.75;2213418;40;20061;-84
2021/06/12 10:22:52;;;;;;;8.05;4.22;;;;;;;29.41;40.53;100055.09;2214639;40;20361;-85
2021/06/12 10:24:23;;;;;;;5.95;3.47;;;;;;;29.43;40.68;100054.81;2213869;40;20074;-84
2021/06/12 10:26:00;;;;;;;8.88;4.30;;;;;;;29.38;40.08;100055.63;2215049;40;20476;-83
2021/06/12 10:27:33;;;;;;;5.78;3.33;;;;;;;29.43;40.39;100049.31;2200267;40;20054;-83
2021/06/12 10:29:04;;;;;;;6.60;3.40;;;;;;;29.83;39.94;100044.19;2209416;40;20034;-85
2021/06/12 10:30:38;;;;;;;5.53;3.92;;;;;;;30.03;39.12;100048.91;2207793;40;20057;-83
2021/06/12 10:32:11;;;;;;;5.43;3.50;;;;;;;29.94;39.33;100050.56;2207206;40;20044;-83
2021/06/12 10:33:44;;;;;;;7.28;3.13;;;;;;;30.01;39.37;100045.59;2207340;40;20077;-84
2021/06/12 10:35:18;;;;;;;5.13;3.72;;;;;;;30.14;39.52;100038.69;2207292;40;20046;-85
2021/06/12 10:36:57;;;;;;;6.53;3.38;;;;;;;30.25;39.33;100036.78;2188444;40;20059;-84
2021/06/12 10:38:30;;;;;;;6.20;4.45;;;;;;;30.54;38.78;100039.81;2212148;40;20519;-85
2021/06/12 10:40:03;;;;;;;7.35;3.78;;;;;;;30.91;38.14;100041.34;2202646;40;20046;-84
2021/06/12 10:41:35;;;;;;;6.97;3.53;;;;;;;31.25;37.76;100035.19;2207396;40;20043;-83
2021/06/12 10:43:13;;;;;;;13.23;4.10;;;;;;;31.37;37.19;100031.25;2205584;40;20053;-84
2021/06/12 10:44:46;;;;;;;6.45;3.50;;;;;;;31.36;37.07;100026.84;2207882;40;20033;-86
2021/06/12 10:46:20;;;;;;;5.72;3.78;;;;;;;31.02;37.55;100025.59;2209644;40;20097;-84
2021/06/12 10:47:51;;;;;;;6.90;3.90;;;;;;;30.74;38.41;100029.81;2197063;40;20031;-86
2021/06/12 10:49:28;;;;;;;6.35;4.18;;;;;;;30.45;38.70;100027.66;2194542;40;20046;-84
2021/06/12 10:50:59;;;;;;;7.75;4.20;;;;;;;30.16;38.98;100025.47;2206701;40;20035;-88
2021/06/12 10:52:43;;;;;;;8.82;4.47;;;;;;;29.69;39.65;100030.13;2205226;40;20661;-83
2021/06/12 10:54:23;;;;;;;5.50;4.00;;;;;;;29.93;39.68;100033.22;2204673;40;20030;-83
2021/06/12 10:55:55;;;;;;;7.28;3.78;;;;;;;29.98;39.92;100030.44;2206043;40;20054;-83
2021/06/12 10:57:38;;;;;;;6.32;4.07;;;;;;;29.60;40.49;100029.81;2215689;40;20120;-83
2021/06/12 10:59:13;;;;;;;8.30;4.15;;;;;;;29.56;40.71;100031.47;2215728;40;20033;-83
2021/06/12 11:01:08;;;;;;;8.63;3.85;;;;;;;29.36;41.08;100023.97;2211851;40;20030;-86
2021/06/12 11:02:54;;;;;;;5.95;3.88;;;;;;;29.60;41.04;100026.25;2215863;40;20576;-83
2021/06/12 11:04:40;;;;;;;6.28;3.70;;;;;;;30.00;40.17;100016.38;2155558;40;20031;-84
2021/06/12 11:06:39;;;;;;;7.00;3.55;;;;;;;29.98;40.28;100013.91;2202478;40;20039;-86
2021/06/12 11:08:15;;;;;;;8.55;4.07;;;;;;;29.70;41.10;100020.75;2184161;40;20113;-83
2021/06/12 11:09:46;;;;;;;6.50;4.15;;;;;;;29.45;41.27;100016.03;2188359;40;20047;-85
2021/06/12 11:11:32;;;;;;;6.40;3.83;;;;;;;29.29;41.30;100012.38;2193785;40;20027;-83
2021/06/12 11:13:19;;;;;;;7.72;4.07;;;;;;;29.25;41.14;100021.16;2195876;40;20088;-83
2021/06/12 11:14:57;;;;;;;6.40;3.58;;;;;;;29.02;42.00;100008.69;2198441;40;20038;-84
2021/06/12 11:16:28;;;;;;;6.78;3.92;;;;;;;28.99;42.12;100011.16;2206756;40;20053;-83
2021/06/12 11:18:15;;;;;;;9.70;3.55;;;;;;;28.90;41.36;100022.66;2212970;40;20030;-83
2021/06/12 11:19:49;;;;;;;4.72;2.85;;;;;;;29.04;40.52;100017.50;2203221;40;20050;-83
2021/06/12 11:21:20;;;;;;;5.15;3.00;;;;;;;29.02;40.65;100014.19;2204772;40;20043;-83
2021/06/12 11:22:53;;;;;;;4.35;2.75;;;;;;;28.86;39.78;100017.97;2209093;40;20034;-83
2021/06/12 11:24:32;;;;;;;4.22;3.05;;;;;;;28.75;40.18;100019.84;2210294;40;20033;-84
2021/06/12 11:26:03;;;;;;;5.00;3.15;;;;;;;28.60;40.12;100017.81;2212808;40;20038;-83
2021/06/12 11:27:36;;;;;;;5.72;2.90;;;;;;;28.49;40.24;100030.66;2211122;40;20605;-82
2021/06/12 11:29:09;;;;;;;7.70;2.95;;;;;;;28.37;40.80;100022.59;2211976;40;20034;-82
2021/06/12 11:30:41;;;;;;;8.40;3.05;;;;;;;28.38;41.05;100016.03;2195260;40;20153;-82
2021/06/12 11:32:27;;;;;;;5.68;3.47;;;;;;;28.43;41.22;100016.06;2204483;40;20090;-82
2021/06/12 11:34:20;;;;;;;6.95;3.63;;;;;;;28.47;41.57;100017.19;2206201;40;20057;-82
2021/06/12 11:35:53;;;;;;;7.20;3.00;;;;;;;28.48;41.90;100012.53;2217612;40;20148;-82
2021/06/12 11:37:27;;;;;;;6.55;3.22;;;;;;;28.46;42.01;100018.28;2177469;40;20066;-85
2021/06/12 11:38:59;;;;;;;6.43;3.20;;;;;;;28.30;42.75;100009.09;2197084;40;20042;-85
2021/06/12 11:40:30;;;;;;;6.32;3.47;;;;;;;28.35;42.58;100010.22;2185537;40;20090;-84
2021/06/12 11:42:02;;;;;;;6.15;3.60;;;;;;;28.25;42.82;100011.81;2191723;40;20471;-86
2021/06/12 11:43:36;;;;;;;7.18;3.70;;;;;;;27.98;43.12;100011.81;2196106;40;20019;-85
2021/06/12 11:45:15;;;;;;;6.95;3.30;;;;;;;27.84;42.81;100012.28;2183752;41;20049;-87
2021/06/12 11:46:48;;;;;;;4.63;2.85;;;;;;;27.80;42.69;100005.63;2183636;40;20044;-86
2021/06/12 11:48:22;;;;;;;7.60;3.00;;;;;;;28.00;42.29;100010.50;2193487;40;20023;-83
2021/06/12 11:49:53;;;;;;;5.50;2.92;;;;;;;28.21;41.61;100016.16;2195347;40;20086;-84
2021/06/12 11:51:28;;;;;;;8.40;2.72;;;;;;;28.16;40.27;100013.38;2183911;40;20035;-83
2021/06/12 11:52:59;;;;;;;4.55;2.53;;;;;;;28.09;39.88;100008.09;2202254;40;20031;-83
2021/06/12 11:54:31;;;;;;;4.70;2.92;;;;;;;28.16;39.69;100002.41;2206673;40;20042;-83
2021/06/12 11:56:03;;;;;;;5.07;2.72;;;;;;;28.37;39.80;100003.38;2207094;40;20055;-82
2021/06/12 11:58:02;;;;;;;5.57;2.13;;;;;;;28.46;39.11;99996.28;2210647;40;20057;-82
2021/06/12 11:59:35;;;;;;;4.28;2.30;;;;;;;28.39;39.78;100003.94;2210736;40;20062;-83
2021/06/12 12:01:05;;;;;;;5.32;2.20;;;;;;;28.26;39.83;100012.63;2208570;40;20027;-81
2021/06/12 12:02:38;;;;;;;5.13;2.40;;;;;;;28.24;39.65;100004.66;2204953;40;20077;-82
2021/06/12 12:04:12;;;;;;;6.65;2.42;;;;;;;28.23;39.17;100010.44;2210556;40;20038;-81
2021/06/12 12:05:46;;;;;;;6.65;2.33;;;;;;;28.25;39.25;100008.22;2204455;40;20031;-83
2021/06/12 12:07:17;;;;;;;4.40;2.38;;;;;;;28.34;39.20;100003.88;2207942;40;20049;-80
2021/06/12 12:08:48;;;;;;;4.13;2.10;;;;;;;28.53;39.08;100004.28;2219660;40;20048;-79
2021/06/12 12:10:24;;;;;;;6.40;2.33;;;;;;;28.64;39.18;100003.28;2217919;40;20053;-83
2021/06/12 12:11:57;;;;;;;5.95;2.40;;;;;;;28.55;39.50;99999.38;2213312;40;20041;-86
2021/06/12 12:13:34;;;;;;;5.15;2.75;;;;;;;28.64;39.48;99991.44;2217349;40;20037;-86
2021/06/12 12:15:07;;;;;;;5.45;2.50;;;;;;;28.76;39.46;99986.56;2206899;40;20018;-84
2021/06/12 12:16:39;;;;;;;3.90;2.40;;;;;;;28.89;39.33;99984.44;2168287;40;20067;-84
2021/06/12 12:18:12;;;;;;;4.63;2.55;;;;;;;28.94;38.95;99990.78;2197273;40;20031;-86
2021/06/12 12:26:30;;;;;;;3.70;1.77;;;;;;;28.85;37.92;99980.56;2166666;41;20301;-84
2021/06/12 12:28:04;;;;;;;6.93;2.03;;;;;;;28.92;37.89;99981.13;2171957;40;20044;-85
2021/06/12 12:29:39;;;;;;;4.65;1.95;;;;;;;28.86;38.53;99984.97;2202348;40;20103;-84
2021/06/12 12:31:10;;;;;;;4.25;2.30;;;;;;;28.67;39.36;99988.16;2207056;40;20046;-83
2021/06/12 12:32:42;;;;;;;4.00;1.83;;;;;;;28.72;38.81;99990.94;2207773;40;20038;-84
2021/06/12 12:34:25;;;;;;;6.18;1.98;;;;;;;28.80;37.51;99989.63;2211371;40;20041;-85
2021/06/12 12:36:01;;;;;;;5.28;1.90;;;;;;;28.76;37.03;99983.81;2220035;40;20344;-83
2021/06/12 12:37:32;;;;;;;3.45;1.60;;;;;;;28.76;36.69;99985.75;2208134;40;20057;-82
2021/06/12 12:39:05;;;;;;;4.80;2.00;;;;;;;28.72;36.54;99979.94;2209291;40;20031;-85
2021/06/12 12:40:38;;;;;;;4.57;2.30;;;;;;;28.56;36.86;99980.94;2206905;40;20046;-85
2021/06/12 12:42:14;;;;;;;4.25;1.98;;;;;;;28.54;36.77;99981.22;2210462;40;20041;-84
2021/06/12 12:43:46;;;;;;;4.50;1.83;;;;;;;28.65;36.14;99973.84;2201042;40;20046;-87
2021/06/12 12:45:20;;;;;;;4.63;1.55;;;;;;;28.75;35.70;99971.16;2204607;40;20033;-85
2021/06/12 12:46:53;;;;;;;3.50;1.60;;;;;;;28.79;35.20;99975.06;2208167;40;20038;-82